Forks, WA (98331)

11:26 AM PST on February 14, 2016 (GMT -0800)
Quillayute | | Change Station
CLOSE
Current Station
Airport
Location: Quillayute,
Elevation: 194 ft
Nearby Weather Stations

Elev 194 ft 47.94 °N, 124.56 °W | Updated 4 minutes ago

Rain
Rain
52 °F
Feels Like 52 °F
N
13
Wind Variable Wind from WSW
Gusts 22 mph

Today
High -- | Low -- °F
--% Chance of Precip.
Yesterday
High -- | Low -- °F
Precip. -- in
Pressure 30.12 in
Visibility 1.0 miles
Clouds Overcast 300 ft
Dew Point 51 °F
Humidity 97%
Rainfall 0.26 in
Snow Depth Not available.
7:26 AM 5:38 PM
Waxing Crescent, 44% visible
SPECI KUIL 141922Z AUTO 25011G19KT 1SM -RA BR OVC003 11/11 A3012 RMK AO2 P0002 T01110106
Pressure 30.12 in
Visibility 1.0 miles
Clouds Overcast 300 ft
Dew Point 51 °F
Humidity 97%
Rainfall 0.26 in
Snow Depth Not available.
7:26 AM 5:38 PM
Waxing Crescent, 44% visible
SPECI KUIL 141922Z AUTO 25011G19KT 1SM -RA BR OVC003 11/11 A3012 RMK AO2 P0002 T01110106

10-Day Weather Forecast

Almanac

Astronomy

Feb. 14, 2016 Rise Set
Actual Time
Civil Twilight
Nautical Twilight
Astronomical Twilight
Moon
Length of Visible Light
Length of Day
Tomorrow will be .
, % of the Moon is Illuminated

Today's Extremes

State Highs State Lows

Community

WunderPhotos

Upload Photos

1,892,875 photos uploaded!

WunderBlog® & News

Nearby

Air Quality

  Air Quality AQ Index Pollutant
Not available.

Snow Depth

Station Depth Elevation

Earthquake Activity

City Distance Mag. Time & Date
Minimum magnitude displayed is 2.5.

Coastal Water Temperatures

Place Temperature

Stations

Nearby Weather Stations

Station Location Temp. Windchill Dew Point Humidity Wind Precip. Elev Updated Type
                   

Watches & Warnings

There are currently no watches in effect.